sensor_id;sensor_type;location;lat;lon;timestamp;P1;durP1;ratioP1;P2;durP2;ratioP2
3341;SDS011;1684;50.748;6.154;2023-12-07T00:00:04;38.80;;;20.40;;
3341;SDS011;1684;50.748;6.154;2023-12-07T00:02:33;45.23;;;20.23;;
3341;SDS011;1684;50.748;6.154;2023-12-07T00:05:01;42.67;;;21.17;;
3341;SDS011;1684;50.748;6.154;2023-12-07T00:07:31;38.30;;;20.23;;
3341;SDS011;1684;50.748;6.154;2023-12-07T00:09:59;45.57;;;20.87;;
3341;SDS011;1684;50.748;6.154;2023-12-07T00:12:28;33.37;;;19.70;;
3341;SDS011;1684;50.748;6.154;2023-12-07T00:14:56;37.77;;;19.90;;
3341;SDS011;1684;50.748;6.154;2023-12-07T00:17:24;46.13;;;19.87;;
3341;SDS011;1684;50.748;6.154;2023-12-07T00:19:54;39.27;;;21.80;;
3341;SDS011;1684;50.748;6.154;2023-12-07T00:22:22;39.57;;;19.43;;
3341;SDS011;1684;50.748;6.154;2023-12-07T00:24:54;43.60;;;20.37;;
3341;SDS011;1684;50.748;6.154;2023-12-07T00:27:22;34.63;;;19.50;;
3341;SDS011;1684;50.748;6.154;2023-12-07T00:29:51;42.33;;;20.40;;
3341;SDS011;1684;50.748;6.154;2023-12-07T00:32:19;36.27;;;19.10;;
3341;SDS011;1684;50.748;6.154;2023-12-07T00:34:48;34.30;;;18.80;;
3341;SDS011;1684;50.748;6.154;2023-12-07T00:37:16;38.23;;;18.00;;
3341;SDS011;1684;50.748;6.154;2023-12-07T00:39:45;41.23;;;19.80;;
3341;SDS011;1684;50.748;6.154;2023-12-07T00:42:15;47.90;;;20.53;;
3341;SDS011;1684;50.748;6.154;2023-12-07T00:44:43;37.00;;;20.77;;
3341;SDS011;1684;50.748;6.154;2023-12-07T00:47:12;39.23;;;18.97;;
3341;SDS011;1684;50.748;6.154;2023-12-07T00:49:40;29.93;;;16.97;;
3341;SDS011;1684;50.748;6.154;2023-12-07T00:52:09;42.37;;;20.33;;
3341;SDS011;1684;50.748;6.154;2023-12-07T00:54:37;38.87;;;19.17;;
3341;SDS011;1684;50.748;6.154;2023-12-07T00:57:06;39.70;;;19.50;;
3341;SDS011;1684;50.748;6.154;2023-12-07T00:59:36;37.47;;;19.40;;
3341;SDS011;1684;50.748;6.154;2023-12-07T01:02:04;36.77;;;19.50;;
3341;SDS011;1684;50.748;6.154;2023-12-07T01:04:33;37.93;;;17.63;;
3341;SDS011;1684;50.748;6.154;2023-12-07T01:07:01;38.37;;;19.97;;
3341;SDS011;1684;50.748;6.154;2023-12-07T01:09:30;37.53;;;18.20;;
3341;SDS011;1684;50.748;6.154;2023-12-07T01:12:00;35.90;;;18.73;;
3341;SDS011;1684;50.748;6.154;2023-12-07T01:14:29;36.07;;;17.63;;
3341;SDS011;1684;50.748;6.154;2023-12-07T01:16:59;34.33;;;17.20;;
3341;SDS011;1684;50.748;6.154;2023-12-07T01:19:28;30.87;;;16.50;;
3341;SDS011;1684;50.748;6.154;2023-12-07T01:21:57;38.37;;;18.60;;
3341;SDS011;1684;50.748;6.154;2023-12-07T01:24:25;33.90;;;17.73;;
3341;SDS011;1684;50.748;6.154;2023-12-07T01:26:55;37.17;;;17.17;;
3341;SDS011;1684;50.748;6.154;2023-12-07T01:29:24;32.23;;;17.37;;
3341;SDS011;1684;50.748;6.154;2023-12-07T01:31:52;31.00;;;17.83;;
3341;SDS011;1684;50.748;6.154;2023-12-07T01:34:22;37.53;;;17.80;;
3341;SDS011;1684;50.748;6.154;2023-12-07T01:36:50;32.67;;;17.10;;
3341;SDS011;1684;50.748;6.154;2023-12-07T01:39:19;29.70;;;16.67;;
3341;SDS011;1684;50.748;6.154;2023-12-07T01:41:48;37.80;;;19.10;;
3341;SDS011;1684;50.748;6.154;2023-12-07T01:44:16;35.17;;;17.50;;
3341;SDS011;1684;50.748;6.154;2023-12-07T01:46:44;27.10;;;16.93;;
3341;SDS011;1684;50.748;6.154;2023-12-07T01:49:13;34.67;;;18.03;;
3341;SDS011;1684;50.748;6.154;2023-12-07T01:51:43;30.30;;;17.00;;
3341;SDS011;1684;50.748;6.154;2023-12-07T01:54:12;31.47;;;17.73;;
3341;SDS011;1684;50.748;6.154;2023-12-07T01:56:40;37.33;;;16.77;;
3341;SDS011;1684;50.748;6.154;2023-12-07T01:59:09;30.37;;;16.63;;
3341;SDS011;1684;50.748;6.154;2023-12-07T02:01:37;36.83;;;17.30;;
3341;SDS011;1684;50.748;6.154;2023-12-07T02:04:06;34.00;;;17.33;;
3341;SDS011;1684;50.748;6.154;2023-12-07T02:06:34;28.00;;;14.70;;
3341;SDS011;1684;50.748;6.154;2023-12-07T02:09:04;30.47;;;16.50;;
3341;SDS011;1684;50.748;6.154;2023-12-07T02:11:33;33.97;;;17.13;;
3341;SDS011;1684;50.748;6.154;2023-12-07T02:14:01;28.80;;;16.70;;
3341;SDS011;1684;50.748;6.154;2023-12-07T02:16:32;35.27;;;16.30;;
3341;SDS011;1684;50.748;6.154;2023-12-07T02:19:03;28.77;;;16.03;;
3341;SDS011;1684;50.748;6.154;2023-12-07T02:21:38;36.13;;;17.20;;
3341;SDS011;1684;50.748;6.154;2023-12-07T02:24:09;30.17;;;15.23;;
3341;SDS011;1684;50.748;6.154;2023-12-07T02:26:40;29.30;;;15.63;;
3341;SDS011;1684;50.748;6.154;2023-12-07T02:29:15;30.20;;;15.80;;
3341;SDS011;1684;50.748;6.154;2023-12-07T02:31:44;25.57;;;14.17;;
3341;SDS011;1684;50.748;6.154;2023-12-07T02:34:13;28.97;;;14.03;;
3341;SDS011;1684;50.748;6.154;2023-12-07T02:36:41;23.37;;;13.63;;
3341;SDS011;1684;50.748;6.154;2023-12-07T02:39:12;27.13;;;12.70;;
3341;SDS011;1684;50.748;6.154;2023-12-07T02:41:43;28.87;;;14.97;;
3341;SDS011;1684;50.748;6.154;2023-12-07T02:44:13;24.83;;;14.80;;
3341;SDS011;1684;50.748;6.154;2023-12-07T02:46:42;23.97;;;12.97;;
3341;SDS011;1684;50.748;6.154;2023-12-07T02:49:11;25.30;;;13.20;;
3341;SDS011;1684;50.748;6.154;2023-12-07T02:51:39;24.60;;;14.57;;
3341;SDS011;1684;50.748;6.154;2023-12-07T02:54:08;27.90;;;14.00;;
3341;SDS011;1684;50.748;6.154;2023-12-07T02:56:36;22.93;;;12.50;;
3341;SDS011;1684;50.748;6.154;2023-12-07T02:59:06;22.60;;;13.33;;
3341;SDS011;1684;50.748;6.154;2023-12-07T03:01:34;24.10;;;12.53;;
3341;SDS011;1684;50.748;6.154;2023-12-07T03:04:03;24.20;;;12.20;;
3341;SDS011;1684;50.748;6.154;2023-12-07T03:06:31;23.90;;;12.70;;
3341;SDS011;1684;50.748;6.154;2023-12-07T03:09:00;26.90;;;12.87;;
3341;SDS011;1684;50.748;6.154;2023-12-07T03:11:29;23.13;;;11.60;;
3341;SDS011;1684;50.748;6.154;2023-12-07T03:13:57;18.50;;;10.90;;
3341;SDS011;1684;50.748;6.154;2023-12-07T03:16:28;30.90;;;12.70;;
3341;SDS011;1684;50.748;6.154;2023-12-07T03:18:56;22.73;;;12.67;;
3341;SDS011;1684;50.748;6.154;2023-12-07T03:21:25;24.37;;;12.97;;
3341;SDS011;1684;50.748;6.154;2023-12-07T03:23:53;22.10;;;11.90;;
3341;SDS011;1684;50.748;6.154;2023-12-07T03:26:22;24.40;;;11.10;;
3341;SDS011;1684;50.748;6.154;2023-12-07T03:28:50;20.00;;;10.73;;
3341;SDS011;1684;50.748;6.154;2023-12-07T03:31:18;21.30;;;10.40;;
3341;SDS011;1684;50.748;6.154;2023-12-07T03:33:48;16.33;;;9.40;;
3341;SDS011;1684;50.748;6.154;2023-12-07T03:36:17;21.63;;;10.67;;
3341;SDS011;1684;50.748;6.154;2023-12-07T03:38:45;17.00;;;10.33;;
3341;SDS011;1684;50.748;6.154;2023-12-07T03:41:14;18.13;;;11.00;;
3341;SDS011;1684;50.748;6.154;2023-12-07T03:43:42;17.60;;;10.47;;
3341;SDS011;1684;50.748;6.154;2023-12-07T03:46:11;21.77;;;9.73;;
3341;SDS011;1684;50.748;6.154;2023-12-07T03:48:41;15.90;;;10.27;;
3341;SDS011;1684;50.748;6.154;2023-12-07T03:51:13;17.07;;;9.97;;
3341;SDS011;1684;50.748;6.154;2023-12-07T03:53:43;17.03;;;9.50;;
3341;SDS011;1684;50.748;6.154;2023-12-07T03:56:22;15.60;;;9.83;;
3341;SDS011;1684;50.748;6.154;2023-12-07T03:58:50;17.53;;;8.93;;
3341;SDS011;1684;50.748;6.154;2023-12-07T04:01:21;18.03;;;9.90;;
3341;SDS011;1684;50.748;6.154;2023-12-07T04:03:50;16.50;;;8.43;;
3341;SDS011;1684;50.748;6.154;2023-12-07T04:06:20;18.20;;;8.73;;
3341;SDS011;1684;50.748;6.154;2023-12-07T04:08:49;19.33;;;10.07;;
3341;SDS011;1684;50.748;6.154;2023-12-07T04:11:18;18.03;;;9.60;;
3341;SDS011;1684;50.748;6.154;2023-12-07T04:13:46;16.97;;;10.03;;
3341;SDS011;1684;50.748;6.154;2023-12-07T04:16:15;16.20;;;9.20;;
3341;SDS011;1684;50.748;6.154;2023-12-07T04:18:44;17.60;;;9.20;;
3341;SDS011;1684;50.748;6.154;2023-12-07T04:21:13;16.40;;;8.97;;
3341;SDS011;1684;50.748;6.154;2023-12-07T04:23:43;17.20;;;10.10;;
3341;SDS011;1684;50.748;6.154;2023-12-07T04:26:12;19.20;;;10.93;;
3341;SDS011;1684;50.748;6.154;2023-12-07T04:28:43;16.47;;;9.90;;
3341;SDS011;1684;50.748;6.154;2023-12-07T04:31:11;16.23;;;8.73;;
3341;SDS011;1684;50.748;6.154;2023-12-07T04:33:40;19.50;;;9.90;;
3341;SDS011;1684;50.748;6.154;2023-12-07T04:36:09;16.63;;;10.10;;
3341;SDS011;1684;50.748;6.154;2023-12-07T04:38:38;19.13;;;9.80;;
3341;SDS011;1684;50.748;6.154;2023-12-07T04:41:08;16.47;;;9.80;;
3341;SDS011;1684;50.748;6.154;2023-12-07T04:43:36;19.80;;;9.80;;
3341;SDS011;1684;50.748;6.154;2023-12-07T04:46:05;14.87;;;9.50;;
3341;SDS011;1684;50.748;6.154;2023-12-07T04:48:33;18.57;;;9.20;;
3341;SDS011;1684;50.748;6.154;2023-12-07T04:51:03;15.90;;;8.10;;
3341;SDS011;1684;50.748;6.154;2023-12-07T04:53:31;16.37;;;10.07;;
3341;SDS011;1684;50.748;6.154;2023-12-07T04:56:00;18.20;;;10.13;;
3341;SDS011;1684;50.748;6.154;2023-12-07T04:58:30;18.90;;;11.13;;
3341;SDS011;1684;50.748;6.154;2023-12-07T05:00:58;19.93;;;10.87;;
3341;SDS011;1684;50.748;6.154;2023-12-07T05:03:27;14.73;;;8.70;;
3341;SDS011;1684;50.748;6.154;2023-12-07T05:05:55;19.77;;;10.17;;
3341;SDS011;1684;50.748;6.154;2023-12-07T05:08:24;18.23;;;10.33;;
3341;SDS011;1684;50.748;6.154;2023-12-07T05:10:53;19.00;;;10.60;;
3341;SDS011;1684;50.748;6.154;2023-12-07T05:13:27;18.57;;;9.00;;
3341;SDS011;1684;50.748;6.154;2023-12-07T05:15:57;18.17;;;9.73;;
3341;SDS011;1684;50.748;6.154;2023-12-07T05:18:26;22.03;;;12.00;;
3341;SDS011;1684;50.748;6.154;2023-12-07T05:20:55;19.90;;;9.87;;
3341;SDS011;1684;50.748;6.154;2023-12-07T05:23:24;19.40;;;10.70;;
3341;SDS011;1684;50.748;6.154;2023-12-07T05:25:53;17.87;;;10.50;;
3341;SDS011;1684;50.748;6.154;2023-12-07T05:28:21;20.60;;;10.67;;
3341;SDS011;1684;50.748;6.154;2023-12-07T05:30:50;26.00;;;11.83;;
3341;SDS011;1684;50.748;6.154;2023-12-07T05:33:19;19.40;;;10.60;;
3341;SDS011;1684;50.748;6.154;2023-12-07T05:35:48;21.00;;;10.27;;
3341;SDS011;1684;50.748;6.154;2023-12-07T05:38:16;21.90;;;11.47;;
3341;SDS011;1684;50.748;6.154;2023-12-07T05:40:44;19.37;;;10.80;;
3341;SDS011;1684;50.748;6.154;2023-12-07T05:43:14;19.83;;;9.93;;
3341;SDS011;1684;50.748;6.154;2023-12-07T05:45:45;19.00;;;9.30;;
3341;SDS011;1684;50.748;6.154;2023-12-07T05:48:14;18.43;;;11.20;;
3341;SDS011;1684;50.748;6.154;2023-12-07T05:50:44;22.43;;;11.07;;
3341;SDS011;1684;50.748;6.154;2023-12-07T05:53:12;19.43;;;10.77;;
3341;SDS011;1684;50.748;6.154;2023-12-07T05:55:41;21.83;;;10.50;;
3341;SDS011;1684;50.748;6.154;2023-12-07T05:58:11;20.10;;;10.80;;
3341;SDS011;1684;50.748;6.154;2023-12-07T06:00:39;18.60;;;10.10;;
3341;SDS011;1684;50.748;6.154;2023-12-07T06:03:08;23.77;;;12.90;;
3341;SDS011;1684;50.748;6.154;2023-12-07T06:05:37;21.73;;;11.80;;
3341;SDS011;1684;50.748;6.154;2023-12-07T06:08:07;20.93;;;11.37;;
3341;SDS011;1684;50.748;6.154;2023-12-07T06:10:35;23.17;;;9.70;;
3341;SDS011;1684;50.748;6.154;2023-12-07T06:13:05;19.77;;;10.27;;
3341;SDS011;1684;50.748;6.154;2023-12-07T06:15:34;15.33;;;8.40;;
3341;SDS011;1684;50.748;6.154;2023-12-07T06:18:03;16.83;;;8.63;;
3341;SDS011;1684;50.748;6.154;2023-12-07T06:20:32;16.40;;;8.07;;
3341;SDS011;1684;50.748;6.154;2023-12-07T06:23:01;19.83;;;9.77;;
3341;SDS011;1684;50.748;6.154;2023-12-07T06:25:32;17.03;;;8.20;;
3341;SDS011;1684;50.748;6.154;2023-12-07T06:30:32;15.43;;;8.50;;
3341;SDS011;1684;50.748;6.154;2023-12-07T06:33:01;14.67;;;8.63;;
3341;SDS011;1684;50.748;6.154;2023-12-07T06:35:30;18.40;;;9.40;;
3341;SDS011;1684;50.748;6.154;2023-12-07T06:37:59;15.53;;;7.97;;
3341;SDS011;1684;50.748;6.154;2023-12-07T06:40:28;15.43;;;8.93;;
3341;SDS011;1684;50.748;6.154;2023-12-07T06:43:01;17.00;;;8.70;;
3341;SDS011;1684;50.748;6.154;2023-12-07T06:45:29;13.93;;;8.30;;
3341;SDS011;1684;50.748;6.154;2023-12-07T06:47:58;13.70;;;8.10;;
3341;SDS011;1684;50.748;6.154;2023-12-07T06:50:28;12.67;;;7.27;;
3341;SDS011;1684;50.748;6.154;2023-12-07T06:52:57;17.33;;;8.07;;
3341;SDS011;1684;50.748;6.154;2023-12-07T06:55:25;15.40;;;8.73;;
3341;SDS011;1684;50.748;6.154;2023-12-07T06:57:55;12.63;;;7.20;;
3341;SDS011;1684;50.748;6.154;2023-12-07T07:00:25;26.23;;;10.67;;
3341;SDS011;1684;50.748;6.154;2023-12-07T07:02:53;18.50;;;8.70;;
3341;SDS011;1684;50.748;6.154;2023-12-07T07:05:21;18.40;;;8.20;;
3341;SDS011;1684;50.748;6.154;2023-12-07T07:07:51;18.90;;;8.37;;
3341;SDS011;1684;50.748;6.154;2023-12-07T07:10:19;14.27;;;7.67;;
3341;SDS011;1684;50.748;6.154;2023-12-07T07:12:47;13.90;;;7.03;;
3341;SDS011;1684;50.748;6.154;2023-12-07T07:15:16;14.17;;;7.10;;
3341;SDS011;1684;50.748;6.154;2023-12-07T07:17:46;12.93;;;8.50;;
3341;SDS011;1684;50.748;6.154;2023-12-07T07:20:14;13.57;;;7.20;;
3341;SDS011;1684;50.748;6.154;2023-12-07T07:22:43;17.23;;;7.77;;
3341;SDS011;1684;50.748;6.154;2023-12-07T07:25:11;15.47;;;7.47;;
3341;SDS011;1684;50.748;6.154;2023-12-07T07:27:42;14.57;;;8.90;;
3341;SDS011;1684;50.748;6.154;2023-12-07T07:30:11;15.90;;;8.93;;
3341;SDS011;1684;50.748;6.154;2023-12-07T07:32:39;15.63;;;9.67;;
3341;SDS011;1684;50.748;6.154;2023-12-07T07:35:10;15.53;;;7.53;;
3341;SDS011;1684;50.748;6.154;2023-12-07T07:37:38;17.17;;;8.60;;
3341;SDS011;1684;50.748;6.154;2023-12-07T07:40:08;17.07;;;9.57;;
3341;SDS011;1684;50.748;6.154;2023-12-07T07:42:39;15.83;;;7.27;;
3341;SDS011;1684;50.748;6.154;2023-12-07T07:45:07;16.17;;;8.40;;
3341;SDS011;1684;50.748;6.154;2023-12-07T07:47:36;14.20;;;7.63;;
3341;SDS011;1684;50.748;6.154;2023-12-07T07:50:05;15.37;;;8.70;;
3341;SDS011;1684;50.748;6.154;2023-12-07T07:52:35;15.97;;;9.10;;
3341;SDS011;1684;50.748;6.154;2023-12-07T07:55:04;17.10;;;7.73;;
3341;SDS011;1684;50.748;6.154;2023-12-07T07:57:32;14.37;;;7.43;;
3341;SDS011;1684;50.748;6.154;2023-12-07T08:00:02;17.13;;;7.97;;
3341;SDS011;1684;50.748;6.154;2023-12-07T08:02:31;15.03;;;7.43;;
3341;SDS011;1684;50.748;6.154;2023-12-07T08:05:00;14.87;;;8.90;;
3341;SDS011;1684;50.748;6.154;2023-12-07T08:07:28;21.50;;;9.23;;
3341;SDS011;1684;50.748;6.154;2023-12-07T08:09:59;15.70;;;7.50;;
3341;SDS011;1684;50.748;6.154;2023-12-07T08:12:30;14.40;;;7.77;;
3341;SDS011;1684;50.748;6.154;2023-12-07T08:14:58;20.90;;;10.10;;
3341;SDS011;1684;50.748;6.154;2023-12-07T08:17:27;22.43;;;9.80;;
3341;SDS011;1684;50.748;6.154;2023-12-07T08:19:56;18.70;;;10.33;;
3341;SDS011;1684;50.748;6.154;2023-12-07T08:22:25;18.63;;;8.53;;
3341;SDS011;1684;50.748;6.154;2023-12-07T08:24:54;17.20;;;8.90;;
3341;SDS011;1684;50.748;6.154;2023-12-07T08:27:37;19.07;;;9.00;;
3341;SDS011;1684;50.748;6.154;2023-12-07T08:30:06;17.57;;;9.03;;
3341;SDS011;1684;50.748;6.154;2023-12-07T08:32:36;14.60;;;8.27;;
3341;SDS011;1684;50.748;6.154;2023-12-07T08:35:05;15.70;;;8.50;;
3341;SDS011;1684;50.748;6.154;2023-12-07T08:37:36;14.43;;;7.53;;
3341;SDS011;1684;50.748;6.154;2023-12-07T08:40:05;20.77;;;9.60;;
3341;SDS011;1684;50.748;6.154;2023-12-07T08:42:37;17.27;;;7.87;;
3341;SDS011;1684;50.748;6.154;2023-12-07T08:45:06;16.50;;;8.10;;
3341;SDS011;1684;50.748;6.154;2023-12-07T08:47:36;19.00;;;9.37;;
3341;SDS011;1684;50.748;6.154;2023-12-07T08:50:04;18.50;;;8.07;;
3341;SDS011;1684;50.748;6.154;2023-12-07T08:52:33;20.70;;;9.63;;
3341;SDS011;1684;50.748;6.154;2023-12-07T08:55:12;17.03;;;8.70;;
3341;SDS011;1684;50.748;6.154;2023-12-07T08:57:44;18.70;;;8.57;;
3341;SDS011;1684;50.748;6.154;2023-12-07T09:00:13;18.30;;;9.43;;
3341;SDS011;1684;50.748;6.154;2023-12-07T09:02:43;24.17;;;9.27;;
3341;SDS011;1684;50.748;6.154;2023-12-07T09:05:13;22.10;;;10.37;;
3341;SDS011;1684;50.748;6.154;2023-12-07T09:07:43;17.50;;;9.57;;
3341;SDS011;1684;50.748;6.154;2023-12-07T09:10:12;21.40;;;9.80;;
3341;SDS011;1684;50.748;6.154;2023-12-07T09:12:41;20.03;;;9.20;;
3341;SDS011;1684;50.748;6.154;2023-12-07T09:15:11;18.43;;;8.57;;
3341;SDS011;1684;50.748;6.154;2023-12-07T09:17:39;16.43;;;9.10;;
3341;SDS011;1684;50.748;6.154;2023-12-07T09:20:08;21.47;;;9.33;;
3341;SDS011;1684;50.748;6.154;2023-12-07T09:22:40;16.07;;;8.80;;
3341;SDS011;1684;50.748;6.154;2023-12-07T09:25:09;22.30;;;8.67;;
3341;SDS011;1684;50.748;6.154;2023-12-07T09:27:38;19.87;;;9.60;;
3341;SDS011;1684;50.748;6.154;2023-12-07T09:30:08;21.50;;;9.13;;
3341;SDS011;1684;50.748;6.154;2023-12-07T09:32:39;15.93;;;8.13;;
3341;SDS011;1684;50.748;6.154;2023-12-07T09:35:10;16.30;;;8.87;;
3341;SDS011;1684;50.748;6.154;2023-12-07T09:37:42;19.90;;;9.87;;
3341;SDS011;1684;50.748;6.154;2023-12-07T09:40:14;21.60;;;9.53;;
3341;SDS011;1684;50.748;6.154;2023-12-07T09:42:43;20.80;;;10.30;;
3341;SDS011;1684;50.748;6.154;2023-12-07T09:45:12;20.83;;;10.63;;
3341;SDS011;1684;50.748;6.154;2023-12-07T09:47:44;18.10;;;9.50;;
3341;SDS011;1684;50.748;6.154;2023-12-07T09:50:15;19.97;;;10.67;;
3341;SDS011;1684;50.748;6.154;2023-12-07T09:52:44;20.90;;;10.67;;
3341;SDS011;1684;50.748;6.154;2023-12-07T09:55:26;16.67;;;8.73;;
3341;SDS011;1684;50.748;6.154;2023-12-07T09:57:54;21.83;;;11.23;;
3341;SDS011;1684;50.748;6.154;2023-12-07T10:00:24;22.53;;;13.10;;
3341;SDS011;1684;50.748;6.154;2023-12-07T10:02:54;23.13;;;11.27;;
3341;SDS011;1684;50.748;6.154;2023-12-07T10:05:22;27.57;;;12.40;;
3341;SDS011;1684;50.748;6.154;2023-12-07T10:07:51;25.77;;;14.10;;
3341;SDS011;1684;50.748;6.154;2023-12-07T10:10:19;23.10;;;13.23;;
3341;SDS011;1684;50.748;6.154;2023-12-07T10:12:50;27.17;;;13.93;;
3341;SDS011;1684;50.748;6.154;2023-12-07T10:15:19;34.90;;;16.33;;
3341;SDS011;1684;50.748;6.154;2023-12-07T10:17:50;26.73;;;13.40;;
3341;SDS011;1684;50.748;6.154;2023-12-07T10:20:20;40.60;;;14.10;;
3341;SDS011;1684;50.748;6.154;2023-12-07T10:23:00;28.77;;;14.20;;
3341;SDS011;1684;50.748;6.154;2023-12-07T10:25:29;35.93;;;17.40;;
3341;SDS011;1684;50.748;6.154;2023-12-07T10:27:58;36.17;;;16.40;;
3341;SDS011;1684;50.748;6.154;2023-12-07T10:30:26;31.33;;;14.40;;
3341;SDS011;1684;50.748;6.154;2023-12-07T10:32:55;35.87;;;15.00;;
3341;SDS011;1684;50.748;6.154;2023-12-07T10:35:25;45.43;;;16.13;;
3341;SDS011;1684;50.748;6.154;2023-12-07T10:37:55;32.37;;;15.13;;
3341;SDS011;1684;50.748;6.154;2023-12-07T10:40:24;30.97;;;13.53;;
3341;SDS011;1684;50.748;6.154;2023-12-07T10:42:53;42.53;;;17.53;;
3341;SDS011;1684;50.748;6.154;2023-12-07T10:45:25;40.90;;;15.53;;
3341;SDS011;1684;50.748;6.154;2023-12-07T10:47:54;29.13;;;14.80;;
3341;SDS011;1684;50.748;6.154;2023-12-07T10:50:27;28.33;;;14.30;;
3341;SDS011;1684;50.748;6.154;2023-12-07T10:53:02;33.57;;;14.50;;
3341;SDS011;1684;50.748;6.154;2023-12-07T10:55:33;30.33;;;16.83;;
3341;SDS011;1684;50.748;6.154;2023-12-07T10:58:02;32.27;;;16.80;;
3341;SDS011;1684;50.748;6.154;2023-12-07T11:00:33;30.40;;;13.50;;
3341;SDS011;1684;50.748;6.154;2023-12-07T11:03:11;31.30;;;15.43;;
3341;SDS011;1684;50.748;6.154;2023-12-07T11:05:41;33.97;;;16.70;;
3341;SDS011;1684;50.748;6.154;2023-12-07T11:08:11;31.07;;;14.30;;
3341;SDS011;1684;50.748;6.154;2023-12-07T11:10:43;33.93;;;14.77;;
3341;SDS011;1684;50.748;6.154;2023-12-07T11:13:16;36.07;;;14.90;;
3341;SDS011;1684;50.748;6.154;2023-12-07T11:15:45;28.97;;;14.77;;
3341;SDS011;1684;50.748;6.154;2023-12-07T11:18:14;27.70;;;12.73;;
3341;SDS011;1684;50.748;6.154;2023-12-07T11:20:44;33.10;;;13.77;;
3341;SDS011;1684;50.748;6.154;2023-12-07T11:23:15;23.20;;;11.67;;
3341;SDS011;1684;50.748;6.154;2023-12-07T11:25:44;18.67;;;9.57;;
3341;SDS011;1684;50.748;6.154;2023-12-07T11:28:14;17.97;;;8.60;;
3341;SDS011;1684;50.748;6.154;2023-12-07T11:30:45;13.07;;;7.63;;
3341;SDS011;1684;50.748;6.154;2023-12-07T11:33:14;15.33;;;7.87;;
3341;SDS011;1684;50.748;6.154;2023-12-07T11:38:31;13.77;;;6.83;;
3341;SDS011;1684;50.748;6.154;2023-12-07T11:41:01;11.80;;;6.00;;
3341;SDS011;1684;50.748;6.154;2023-12-07T11:43:41;11.13;;;6.17;;
3341;SDS011;1684;50.748;6.154;2023-12-07T11:46:12;9.23;;;5.40;;
3341;SDS011;1684;50.748;6.154;2023-12-07T11:48:48;8.00;;;4.77;;
3341;SDS011;1684;50.748;6.154;2023-12-07T11:51:17;11.33;;;5.80;;
3341;SDS011;1684;50.748;6.154;2023-12-07T11:53:46;10.27;;;4.23;;
3341;SDS011;1684;50.748;6.154;2023-12-07T11:56:18;6.87;;;3.70;;
3341;SDS011;1684;50.748;6.154;2023-12-07T11:58:48;11.37;;;4.90;;
3341;SDS011;1684;50.748;6.154;2023-12-07T12:01:17;7.70;;;4.53;;
3341;SDS011;1684;50.748;6.154;2023-12-07T12:03:46;6.53;;;3.70;;
3341;SDS011;1684;50.748;6.154;2023-12-07T12:06:15;8.93;;;4.10;;
3341;SDS011;1684;50.748;6.154;2023-12-07T12:08:44;9.40;;;3.97;;
3341;SDS011;1684;50.748;6.154;2023-12-07T12:11:15;8.87;;;4.10;;
3341;SDS011;1684;50.748;6.154;2023-12-07T12:13:44;10.70;;;3.83;;
3341;SDS011;1684;50.748;6.154;2023-12-07T12:16:13;7.20;;;4.43;;
3341;SDS011;1684;50.748;6.154;2023-12-07T12:18:42;8.90;;;3.93;;
3341;SDS011;1684;50.748;6.154;2023-12-07T12:21:10;8.23;;;4.40;;
3341;SDS011;1684;50.748;6.154;2023-12-07T12:23:38;6.83;;;3.60;;
3341;SDS011;1684;50.748;6.154;2023-12-07T12:26:07;8.23;;;4.00;;
3341;SDS011;1684;50.748;6.154;2023-12-07T12:28:39;6.77;;;3.90;;
3341;SDS011;1684;50.748;6.154;2023-12-07T12:31:10;9.20;;;4.80;;
3341;SDS011;1684;50.748;6.154;2023-12-07T12:33:39;8.60;;;4.07;;
3341;SDS011;1684;50.748;6.154;2023-12-07T12:36:07;8.50;;;3.20;;
3341;SDS011;1684;50.748;6.154;2023-12-07T12:38:37;7.50;;;3.30;;
3341;SDS011;1684;50.748;6.154;2023-12-07T12:41:09;5.90;;;3.60;;
3341;SDS011;1684;50.748;6.154;2023-12-07T12:43:39;8.10;;;4.07;;
3341;SDS011;1684;50.748;6.154;2023-12-07T12:46:09;8.03;;;4.23;;
3341;SDS011;1684;50.748;6.154;2023-12-07T12:48:51;8.77;;;5.00;;
3341;SDS011;1684;50.748;6.154;2023-12-07T12:51:20;5.80;;;3.70;;
3341;SDS011;1684;50.748;6.154;2023-12-07T12:53:49;6.33;;;3.87;;
3341;SDS011;1684;50.748;6.154;2023-12-07T12:56:19;6.53;;;3.47;;
3341;SDS011;1684;50.748;6.154;2023-12-07T12:58:49;8.17;;;4.10;;
3341;SDS011;1684;50.748;6.154;2023-12-07T13:01:17;6.03;;;3.90;;
3341;SDS011;1684;50.748;6.154;2023-12-07T13:03:47;6.37;;;3.43;;
3341;SDS011;1684;50.748;6.154;2023-12-07T13:06:16;5.20;;;3.27;;
3341;SDS011;1684;50.748;6.154;2023-12-07T13:08:45;6.23;;;3.13;;
3341;SDS011;1684;50.748;6.154;2023-12-07T13:11:14;8.53;;;3.97;;
3341;SDS011;1684;50.748;6.154;2023-12-07T13:13:43;4.47;;;2.80;;
3341;SDS011;1684;50.748;6.154;2023-12-07T13:16:13;6.33;;;2.87;;
3341;SDS011;1684;50.748;6.154;2023-12-07T13:18:41;5.87;;;2.90;;
3341;SDS011;1684;50.748;6.154;2023-12-07T13:21:10;5.10;;;3.37;;
3341;SDS011;1684;50.748;6.154;2023-12-07T13:23:39;5.40;;;2.90;;
3341;SDS011;1684;50.748;6.154;2023-12-07T13:26:07;5.97;;;3.70;;
3341;SDS011;1684;50.748;6.154;2023-12-07T13:28:35;5.07;;;3.07;;
3341;SDS011;1684;50.748;6.154;2023-12-07T13:31:04;5.40;;;3.37;;
3341;SDS011;1684;50.748;6.154;2023-12-07T13:33:35;5.77;;;3.50;;
3341;SDS011;1684;50.748;6.154;2023-12-07T13:36:18;6.10;;;3.40;;
3341;SDS011;1684;50.748;6.154;2023-12-07T13:38:49;8.53;;;3.40;;
3341;SDS011;1684;50.748;6.154;2023-12-07T13:41:17;6.60;;;3.60;;
3341;SDS011;1684;50.748;6.154;2023-12-07T13:43:48;5.30;;;3.30;;
3341;SDS011;1684;50.748;6.154;2023-12-07T13:46:17;9.40;;;5.13;;
3341;SDS011;1684;50.748;6.154;2023-12-07T13:48:47;8.83;;;4.00;;
3341;SDS011;1684;50.748;6.154;2023-12-07T13:51:16;7.57;;;3.70;;
3341;SDS011;1684;50.748;6.154;2023-12-07T13:53:45;6.70;;;4.20;;
3341;SDS011;1684;50.748;6.154;2023-12-07T13:56:15;6.67;;;3.27;;
3341;SDS011;1684;50.748;6.154;2023-12-07T13:58:43;7.37;;;3.67;;
3341;SDS011;1684;50.748;6.154;2023-12-07T14:01:11;9.30;;;4.10;;
3341;SDS011;1684;50.748;6.154;2023-12-07T14:03:39;8.53;;;5.20;;
3341;SDS011;1684;50.748;6.154;2023-12-07T14:06:10;7.97;;;4.00;;
3341;SDS011;1684;50.748;6.154;2023-12-07T14:08:53;7.87;;;3.93;;
3341;SDS011;1684;50.748;6.154;2023-12-07T14:11:21;12.00;;;4.40;;
3341;SDS011;1684;50.748;6.154;2023-12-07T14:13:48;8.50;;;5.00;;
3341;SDS011;1684;50.748;6.154;2023-12-07T14:16:20;6.40;;;4.00;;
3341;SDS011;1684;50.748;6.154;2023-12-07T14:19:08;6.93;;;4.57;;
3341;SDS011;1684;50.748;6.154;2023-12-07T14:21:41;8.53;;;4.90;;
3341;SDS011;1684;50.748;6.154;2023-12-07T14:24:20;7.83;;;4.13;;
3341;SDS011;1684;50.748;6.154;2023-12-07T14:26:49;7.13;;;3.67;;
3341;SDS011;1684;50.748;6.154;2023-12-07T14:29:17;7.27;;;4.30;;
3341;SDS011;1684;50.748;6.154;2023-12-07T14:31:53;7.90;;;3.77;;
3341;SDS011;1684;50.748;6.154;2023-12-07T14:34:23;7.43;;;3.90;;
3341;SDS011;1684;50.748;6.154;2023-12-07T14:37:02;7.83;;;4.00;;
3341;SDS011;1684;50.748;6.154;2023-12-07T14:39:33;7.97;;;3.57;;
3341;SDS011;1684;50.748;6.154;2023-12-07T14:42:01;6.37;;;3.80;;
3341;SDS011;1684;50.748;6.154;2023-12-07T14:44:31;8.97;;;4.40;;
3341;SDS011;1684;50.748;6.154;2023-12-07T14:46:59;6.97;;;3.90;;
3341;SDS011;1684;50.748;6.154;2023-12-07T14:49:27;7.90;;;4.67;;
3341;SDS011;1684;50.748;6.154;2023-12-07T14:51:56;9.03;;;4.23;;
3341;SDS011;1684;50.748;6.154;2023-12-07T14:54:27;6.50;;;3.80;;
3341;SDS011;1684;50.748;6.154;2023-12-07T14:56:57;7.07;;;3.83;;
3341;SDS011;1684;50.748;6.154;2023-12-07T14:59:25;7.70;;;3.70;;
3341;SDS011;1684;50.748;6.154;2023-12-07T15:01:55;7.93;;;3.53;;
3341;SDS011;1684;50.748;6.154;2023-12-07T15:04:23;6.93;;;4.07;;
3341;SDS011;1684;50.748;6.154;2023-12-07T15:06:59;6.30;;;3.53;;
3341;SDS011;1684;50.748;6.154;2023-12-07T15:09:30;6.90;;;3.17;;
3341;SDS011;1684;50.748;6.154;2023-12-07T15:12:01;6.63;;;3.77;;
3341;SDS011;1684;50.748;6.154;2023-12-07T15:14:29;5.37;;;3.00;;
3341;SDS011;1684;50.748;6.154;2023-12-07T15:17:04;10.40;;;3.53;;